createdAt,value
2022-10-16T00:02:07.775Z,92.70
2022-10-16T00:04:33.852Z,92.60
2022-10-16T00:06:59.955Z,92.80
2022-10-16T00:09:26.040Z,92.50
2022-10-16T00:11:52.171Z,92.40
2022-10-16T00:14:18.342Z,92.30
2022-10-16T00:16:44.497Z,92.30
2022-10-16T00:19:12.838Z,92.30
2022-10-16T00:21:39.549Z,92.30
2022-10-16T00:24:09.010Z,92.30
2022-10-16T00:26:36.627Z,92.40
2022-10-16T00:29:03.241Z,92.40
2022-10-16T00:31:30.172Z,92.40
2022-10-16T00:33:56.710Z,92.40
2022-10-16T00:36:24.629Z,92.20
2022-10-16T00:38:54.037Z,92.20
2022-10-16T00:41:20.717Z,92.20
2022-10-16T00:43:48.553Z,92.20
2022-10-16T00:46:21.667Z,92.20
2022-10-16T00:49:04.556Z,92.20
2022-10-16T00:51:36.829Z,92.50
2022-10-16T00:54:08.521Z,92.20
2022-10-16T00:56:34.932Z,92.10
2022-10-16T00:59:07.730Z,92.10
2022-10-16T01:01:33.841Z,92.10
2022-10-16T01:04:00.029Z,92.10
2022-10-16T01:06:43.431Z,92.10
2022-10-16T01:09:35.395Z,92.20
2022-10-16T01:12:38.665Z,92.20
2022-10-16T01:15:17.741Z,92.10
2022-10-16T01:17:51.830Z,92.00
2022-10-16T01:20:34.746Z,92.00
2022-10-16T01:23:22.214Z,92.00
2022-10-16T01:26:01.279Z,92.00
2022-10-16T01:28:43.684Z,92.00
2022-10-16T01:31:13.136Z,92.00
2022-10-16T01:33:44.244Z,92.10
2022-10-16T01:36:17.566Z,92.10
2022-10-16T01:38:47.742Z,92.10
2022-10-16T01:41:17.059Z,92.20
2022-10-16T01:44:06.665Z,92.20
2022-10-16T01:46:36.502Z,92.20
2022-10-16T01:49:05.621Z,92.20
2022-10-16T01:51:33.638Z,92.30
2022-10-16T01:54:01.953Z,92.30
2022-10-16T01:56:29.944Z,92.30
2022-10-16T01:59:14.236Z,92.20
2022-10-16T02:01:44.698Z,92.30
2022-10-16T02:04:34.673Z,92.30
2022-10-16T02:07:01.212Z,92.40
2022-10-16T02:09:27.574Z,92.50
2022-10-16T02:11:57.631Z,92.60
2022-10-16T02:14:25.039Z,92.70
2022-10-16T02:16:51.237Z,92.70
2022-10-16T02:19:22.177Z,92.70
2022-10-16T02:22:02.592Z,92.80
2022-10-16T02:24:37.576Z,92.80
2022-10-16T02:27:25.414Z,92.90
2022-10-16T02:29:59.792Z,92.90
2022-10-16T02:32:31.046Z,93.00
2022-10-16T02:34:58.890Z,93.10
2022-10-16T02:37:28.676Z,93.50
2022-10-16T02:39:57.509Z,93.30
2022-10-16T02:42:34.485Z,93.50
2022-10-16T02:45:00.572Z,93.60
2022-10-16T02:47:26.862Z,93.80
2022-10-16T02:49:53.047Z,93.90
2022-10-16T02:52:19.412Z,94.00
2022-10-16T02:54:45.717Z,94.10
2022-10-16T02:57:12.514Z,94.20
2022-10-16T02:59:38.561Z,94.10
2022-10-16T03:02:04.991Z,94.20
2022-10-16T03:04:31.085Z,94.20
2022-10-16T03:06:57.522Z,94.20
2022-10-16T03:09:23.774Z,94.10
2022-10-16T03:11:50.365Z,94.40
2022-10-16T03:14:16.459Z,94.00
2022-10-16T03:16:42.594Z,94.00
2022-10-16T03:19:08.901Z,93.90
2022-10-16T03:21:35.038Z,93.90
2022-10-16T03:24:01.192Z,93.90
2022-10-16T03:26:27.269Z,93.90
2022-10-16T03:28:53.433Z,94.00
2022-10-16T03:31:19.541Z,94.10
2022-10-16T03:33:45.670Z,94.20
2022-10-16T03:36:11.889Z,94.50
2022-10-16T03:38:38.057Z,94.30
2022-10-16T03:41:04.722Z,94.50
2022-10-16T03:43:31.033Z,94.40
2022-10-16T03:45:57.224Z,94.40
2022-10-16T03:48:23.356Z,94.50
2022-10-16T03:50:51.022Z,94.60
2022-10-16T03:53:17.083Z,94.80
2022-10-16T03:55:44.089Z,94.90
2022-10-16T03:58:10.993Z,95.00
2022-10-16T04:00:43.415Z,95.10
2022-10-16T04:03:10.642Z,95.20
2022-10-16T04:05:37.008Z,95.20
2022-10-16T04:08:03.656Z,95.10
2022-10-16T04:10:29.682Z,95.20
2022-10-16T04:12:56.279Z,95.20
2022-10-16T04:15:25.893Z,95.20
2022-10-16T04:17:52.554Z,95.60
2022-10-16T04:20:19.091Z,95.40
2022-10-16T04:22:45.393Z,95.40
2022-10-16T04:25:12.205Z,95.40
2022-10-16T04:27:42.225Z,95.30
2022-10-16T04:30:11.637Z,95.30
2022-10-16T04:32:37.836Z,95.30
2022-10-16T04:35:04.396Z,95.30
2022-10-16T04:37:30.474Z,95.40
2022-10-16T04:39:56.576Z,95.40
2022-10-16T04:42:22.860Z,95.50
2022-10-16T04:44:49.147Z,95.50
2022-10-16T04:47:15.321Z,95.60
2022-10-16T04:49:41.614Z,95.60
2022-10-16T04:52:09.495Z,95.90
2022-10-16T04:54:35.696Z,95.60
2022-10-16T04:57:01.744Z,95.60
2022-10-16T04:59:27.768Z,95.60
2022-10-16T05:01:53.860Z,95.60
2022-10-16T05:04:19.868Z,95.60
2022-10-16T05:06:45.925Z,95.70
2022-10-16T05:09:12.203Z,95.70
2022-10-16T05:11:38.315Z,95.90
2022-10-16T05:14:04.614Z,95.90
2022-10-16T05:16:31.284Z,95.90
2022-10-16T05:19:22.593Z,96.00
2022-10-16T05:21:43.810Z,96.00
2022-10-16T05:24:09.858Z,96.10
2022-10-16T05:26:35.887Z,96.20
2022-10-16T05:29:02.913Z,96.30
2022-10-16T05:31:30.139Z,96.40
2022-10-16T05:34:00.451Z,96.40
2022-10-16T05:36:26.857Z,96.40
2022-10-16T05:38:52.983Z,96.40
2022-10-16T05:41:21.897Z,96.40
2022-10-16T05:43:48.959Z,96.40
2022-10-16T05:46:17.079Z,96.40
2022-10-16T05:48:43.580Z,96.20
2022-10-16T05:51:12.352Z,96.30
2022-10-16T05:53:40.070Z,96.30
2022-10-16T05:56:09.248Z,96.20
2022-10-16T05:58:38.342Z,96.10
2022-10-16T06:01:16.299Z,96.10
2022-10-16T06:03:42.946Z,96.00
2022-10-16T06:06:14.543Z,96.00
2022-10-16T06:08:42.167Z,95.90
2022-10-16T06:11:11.383Z,95.80
2022-10-16T06:13:37.707Z,95.80
2022-10-16T06:16:04.583Z,95.70
2022-10-16T06:18:30.809Z,95.70
2022-10-16T06:20:57.766Z,95.70
2022-10-16T06:23:24.816Z,95.70
2022-10-16T06:25:50.845Z,95.70
2022-10-16T06:28:17.010Z,95.70
2022-10-16T06:30:44.177Z,95.60
2022-10-16T06:33:13.512Z,95.60
2022-10-16T06:35:39.637Z,95.50
2022-10-16T06:38:05.808Z,95.50
2022-10-16T06:40:31.834Z,95.50
2022-10-16T06:42:57.954Z,95.60
2022-10-16T06:45:24.046Z,95.70
2022-10-16T06:47:50.061Z,95.70
2022-10-16T06:50:16.390Z,95.80
2022-10-16T06:52:42.495Z,95.70
2022-10-16T06:55:09.010Z,95.70
2022-10-16T06:57:35.046Z,95.70
2022-10-16T07:00:01.294Z,95.80
2022-10-16T07:02:27.594Z,95.80
2022-10-16T07:04:53.853Z,95.80
2022-10-16T07:07:20.023Z,95.80
2022-10-16T07:09:46.077Z,95.90
2022-10-16T07:12:12.168Z,95.90
2022-10-16T07:14:38.200Z,95.80
2022-10-16T07:17:04.298Z,95.60
2022-10-16T07:19:33.399Z,95.50
2022-10-16T07:22:00.614Z,95.30
2022-10-16T07:24:26.736Z,95.30
2022-10-16T07:26:52.864Z,95.20
2022-10-16T07:29:21.381Z,95.20
2022-10-16T07:31:48.694Z,95.30
2022-10-16T07:34:16.769Z,94.80
2022-10-16T07:39:13.806Z,94.40
2022-10-16T07:41:39.901Z,94.10
2022-10-16T07:44:06.825Z,93.80
2022-10-16T07:46:34.346Z,93.50
2022-10-16T07:49:00.353Z,93.40
2022-10-16T07:51:26.608Z,93.10
2022-10-16T07:53:53.367Z,92.90
2022-10-16T07:56:20.560Z,93.00
2022-10-16T07:58:46.839Z,93.10
2022-10-16T08:01:15.071Z,93.20
2022-10-16T08:03:46.477Z,93.20
2022-10-16T08:06:12.520Z,93.20
2022-10-16T08:08:38.615Z,93.20
2022-10-16T08:11:04.875Z,93.20
2022-10-16T08:13:32.115Z,93.10
2022-10-16T08:15:58.423Z,93.30
2022-10-16T08:18:24.604Z,93.00
2022-10-16T08:20:58.595Z,92.30
2022-10-16T08:23:27.346Z,92.10
2022-10-16T08:26:02.831Z,90.10
2022-10-16T08:28:29.122Z,79.70
2022-10-16T08:30:56.851Z,75.60
2022-10-16T08:33:23.229Z,70.60
2022-10-16T08:35:53.917Z,65.40
2022-10-16T08:38:20.727Z,61.40
2022-10-16T08:40:49.851Z,59.40
2022-10-16T08:43:25.618Z,57.10
2022-10-16T08:46:06.145Z,54.80
2022-10-16T08:48:43.855Z,53.00
2022-10-16T08:51:18.169Z,51.20
2022-10-16T08:53:58.252Z,50.90
2022-10-16T08:56:25.918Z,49.80
2022-10-16T08:58:57.948Z,52.30
2022-10-16T09:01:49.866Z,51.30
2022-10-16T09:04:36.309Z,51.20
2022-10-16T09:07:29.631Z,51.30
2022-10-16T09:10:13.890Z,49.60
2022-10-16T09:12:54.731Z,50.70
2022-10-16T09:15:28.903Z,52.90
2022-10-16T09:18:20.827Z,56.10
2022-10-16T09:21:12.298Z,58.30
2022-10-16T09:23:38.685Z,59.90
2022-10-16T09:26:06.633Z,62.00
2022-10-16T09:28:32.826Z,62.60
2022-10-16T09:30:58.975Z,63.30
2022-10-16T09:33:31.032Z,61.10
2022-10-16T09:36:01.033Z,55.70
2022-10-16T09:38:34.112Z,55.00
2022-10-16T09:41:03.760Z,55.10
2022-10-16T09:43:46.992Z,55.00
2022-10-16T09:46:35.604Z,52.90
2022-10-16T09:49:05.748Z,54.20
2022-10-16T09:51:35.729Z,53.40
2022-10-16T09:54:18.533Z,52.80
2022-10-16T09:56:52.041Z,53.40
2022-10-16T09:59:20.381Z,56.10
2022-10-16T10:01:56.496Z,56.90
2022-10-16T10:04:26.066Z,54.80
2022-10-16T10:06:59.726Z,54.30
2022-10-16T10:09:38.056Z,53.60
2022-10-16T10:12:08.581Z,50.80
2022-10-16T10:14:46.683Z,49.90
2022-10-16T10:17:19.103Z,48.30
2022-10-16T10:19:48.515Z,48.80
2022-10-16T10:22:28.032Z,49.90
2022-10-16T10:25:12.085Z,47.00
2022-10-16T10:27:47.630Z,44.40
2022-10-16T10:30:31.864Z,41.80
2022-10-16T10:33:13.025Z,42.00
2022-10-16T10:35:39.038Z,43.20
2022-10-16T10:38:27.766Z,44.90
2022-10-16T10:41:13.479Z,46.60
2022-10-16T10:43:51.905Z,48.70
2022-10-16T10:46:33.782Z,49.00
2022-10-16T10:49:27.591Z,49.80
2022-10-16T10:52:13.911Z,49.70
2022-10-16T10:55:12.497Z,48.80
2022-10-16T10:57:44.088Z,48.10
2022-10-16T11:00:55.112Z,47.40
2022-10-16T11:03:58.183Z,43.80
2022-10-16T11:06:40.515Z,40.60
2022-10-16T11:09:42.663Z,39.10
2022-10-16T11:12:14.309Z,37.90
2022-10-16T11:14:47.027Z,36.50
2022-10-16T11:17:26.149Z,37.80
2022-10-16T11:20:13.878Z,37.80
2022-10-16T11:22:45.640Z,36.80
2022-10-16T11:25:28.099Z,37.50
2022-10-16T11:28:01.630Z,38.60
2022-10-16T11:30:39.386Z,40.50
2022-10-16T11:33:08.565Z,40.90
2022-10-16T11:35:58.503Z,39.80
2022-10-16T11:38:55.319Z,37.40
2022-10-16T11:41:40.598Z,38.30
2022-10-16T11:44:39.934Z,38.20
2022-10-16T11:50:13.413Z,37.10
2022-10-16T11:53:01.027Z,36.70
2022-10-16T11:55:33.461Z,35.90
2022-10-16T11:58:13.293Z,36.90
2022-10-16T12:01:00.415Z,36.40
2022-10-16T12:03:37.875Z,36.60
2022-10-16T12:06:32.219Z,34.90
2022-10-16T12:09:00.952Z,35.80
2022-10-16T12:11:26.969Z,37.10
2022-10-16T12:14:26.790Z,39.00
2022-10-16T12:16:52.946Z,41.10
2022-10-16T12:19:27.942Z,42.30
2022-10-16T12:21:57.580Z,43.30
2022-10-16T12:24:32.672Z,43.60
2022-10-16T12:26:59.602Z,44.10
2022-10-16T12:29:45.592Z,45.00
2022-10-16T12:32:46.678Z,45.70
2022-10-16T12:35:23.341Z,45.30
2022-10-16T12:37:51.150Z,46.60
2022-10-16T12:40:33.932Z,47.30
2022-10-16T12:43:13.531Z,47.30
2022-10-16T12:45:40.148Z,46.90
2022-10-16T12:48:21.371Z,46.70
2022-10-16T12:50:47.738Z,47.60
2022-10-16T12:53:27.270Z,47.70
2022-10-16T12:56:15.183Z,48.30
2022-10-16T12:59:00.765Z,48.50
2022-10-16T13:01:55.265Z,49.40
2022-10-16T13:04:52.301Z,49.00
2022-10-16T13:07:37.817Z,49.90
2022-10-16T13:10:06.993Z,49.90
2022-10-16T13:12:58.548Z,50.20
2022-10-16T13:15:55.375Z,50.60
2022-10-16T13:18:41.753Z,49.10
2022-10-16T13:21:32.834Z,50.10
2022-10-16T13:24:17.959Z,49.80
2022-10-16T13:26:56.949Z,50.60
2022-10-16T13:29:23.125Z,50.40
2022-10-16T13:31:49.641Z,50.40
2022-10-16T13:34:19.485Z,50.60
2022-10-16T13:36:50.732Z,50.80
2022-10-16T13:39:24.383Z,51.10
2022-10-16T13:42:25.419Z,51.40
2022-10-16T13:44:55.921Z,51.70
2022-10-16T13:47:25.127Z,52.20
2022-10-16T13:50:06.944Z,52.80
2022-10-16T13:52:33.386Z,53.50
2022-10-16T13:55:01.975Z,52.60
2022-10-16T13:57:28.836Z,52.50
2022-10-16T13:59:56.052Z,52.30
2022-10-16T14:02:30.158Z,52.70
2022-10-16T14:04:57.897Z,52.70
2022-10-16T14:07:26.960Z,52.40
2022-10-16T14:09:54.591Z,52.80
2022-10-16T14:12:24.084Z,53.40
2022-10-16T14:14:55.829Z,53.20
2022-10-16T14:17:31.615Z,53.00
2022-10-16T14:20:02.810Z,53.70
2022-10-16T14:22:35.641Z,53.90
2022-10-16T14:25:03.390Z,53.40
2022-10-16T14:27:33.441Z,54.60
2022-10-16T14:30:16.627Z,55.20
2022-10-16T14:32:57.629Z,54.80
2022-10-16T14:35:31.822Z,55.00
2022-10-16T14:37:59.944Z,55.30
2022-10-16T14:40:37.334Z,56.20
2022-10-16T14:43:04.920Z,56.70
2022-10-16T14:45:34.306Z,57.30
2022-10-16T14:48:19.566Z,57.50
2022-10-16T14:50:46.103Z,58.20
2022-10-16T14:53:15.828Z,56.90
2022-10-16T14:55:44.289Z,57.40
2022-10-16T14:58:22.306Z,57.40
2022-10-16T15:00:48.653Z,58.40
2022-10-16T15:03:14.978Z,58.70
2022-10-16T15:05:41.429Z,57.90
2022-10-16T15:08:13.412Z,58.80
2022-10-16T15:10:44.193Z,59.50
2022-10-16T15:13:13.230Z,59.80
2022-10-16T15:15:45.908Z,60.00
2022-10-16T15:18:15.098Z,60.20
2022-10-16T15:20:41.582Z,60.40
2022-10-16T15:23:22.206Z,61.10
2022-10-16T15:25:53.620Z,61.90
2022-10-16T15:28:21.107Z,62.80
2022-10-16T15:30:50.658Z,63.50
2022-10-16T15:33:19.357Z,63.80
2022-10-16T15:35:49.770Z,64.20
2022-10-16T15:38:17.077Z,64.70
2022-10-16T15:40:43.244Z,65.20
2022-10-16T15:43:11.922Z,65.70
2022-10-16T15:45:38.583Z,66.50
2022-10-16T15:48:05.256Z,67.20
2022-10-16T15:50:32.559Z,67.70
2022-10-16T15:52:58.797Z,68.10
2022-10-16T15:55:25.450Z,68.50
2022-10-16T15:57:52.965Z,69.00
2022-10-16T16:00:25.683Z,69.50
2022-10-16T16:02:54.234Z,70.10
2022-10-16T16:05:21.986Z,70.60
2022-10-16T16:07:49.022Z,71.20
2022-10-16T16:10:15.659Z,72.00
2022-10-16T16:12:42.610Z,72.50
2022-10-16T16:15:11.589Z,72.60
2022-10-16T16:17:37.786Z,72.90
2022-10-16T16:20:05.360Z,73.20
2022-10-16T16:22:31.945Z,73.50
2022-10-16T16:24:58.615Z,73.90
2022-10-16T16:27:30.248Z,74.20
2022-10-16T16:29:56.810Z,74.50
2022-10-16T16:32:22.988Z,74.80
2022-10-16T16:34:49.539Z,75.20
2022-10-16T16:37:15.637Z,75.70
2022-10-16T16:39:41.673Z,76.20
2022-10-16T16:42:07.992Z,76.70
2022-10-16T16:44:36.397Z,76.90
2022-10-16T16:47:04.080Z,77.30
2022-10-16T16:49:30.181Z,77.70
2022-10-16T16:51:56.426Z,78.10
2022-10-16T16:54:22.579Z,78.60
2022-10-16T16:56:48.729Z,78.90
2022-10-16T16:59:19.930Z,79.30
2022-10-16T17:01:46.994Z,79.70
2022-10-16T17:04:15.378Z,79.80
2022-10-16T17:06:42.406Z,80.10
2022-10-16T17:09:09.851Z,80.40
2022-10-16T17:11:36.589Z,80.60
2022-10-16T17:14:03.664Z,81.00
2022-10-16T17:16:35.553Z,81.10
2022-10-16T17:19:08.462Z,81.50
2022-10-16T17:21:35.361Z,81.80
2022-10-16T17:24:02.111Z,81.90
2022-10-16T17:26:28.943Z,82.00
2022-10-16T17:28:57.554Z,82.40
2022-10-16T17:31:31.835Z,83.00
2022-10-16T17:33:59.523Z,82.50
2022-10-16T17:36:28.982Z,82.70
2022-10-16T17:38:55.138Z,82.80
2022-10-16T17:41:23.947Z,82.50
2022-10-16T17:43:51.560Z,82.50
2022-10-16T17:46:20.206Z,82.60
2022-10-16T17:48:48.745Z,82.80
2022-10-16T17:51:18.422Z,83.20
2022-10-16T17:53:52.237Z,83.30
2022-10-16T17:56:19.460Z,83.50
2022-10-16T17:58:52.540Z,83.80
2022-10-16T18:01:22.399Z,84.10
2022-10-16T18:03:50.479Z,84.30
2022-10-16T18:06:20.291Z,84.40
2022-10-16T18:08:49.248Z,84.60
2022-10-16T18:11:15.699Z,84.80
2022-10-16T18:13:41.858Z,85.00
2022-10-16T18:16:10.865Z,85.00
2022-10-16T18:18:41.155Z,85.00
2022-10-16T18:21:10.395Z,85.00
2022-10-16T18:23:37.260Z,85.10
2022-10-16T18:26:05.756Z,85.30
2022-10-16T18:28:32.726Z,85.40
2022-10-16T18:31:01.071Z,85.30
2022-10-16T18:33:30.335Z,85.40
2022-10-16T18:36:04.020Z,85.40
2022-10-16T18:38:50.993Z,85.50
2022-10-16T18:41:18.479Z,85.80
2022-10-16T18:43:44.535Z,85.70
2022-10-16T18:46:13.974Z,85.70
2022-10-16T18:48:40.909Z,85.90
2022-10-16T18:51:17.619Z,86.20
2022-10-16T18:53:46.273Z,86.50
2022-10-16T18:56:14.404Z,86.50
2022-10-16T18:58:44.155Z,86.50
2022-10-16T19:01:16.778Z,86.50
2022-10-16T19:03:43.769Z,86.80
2022-10-16T19:06:12.404Z,87.10
2022-10-16T19:08:38.894Z,87.30
2022-10-16T19:11:07.024Z,87.50
2022-10-16T19:13:33.840Z,87.90
2022-10-16T19:16:19.255Z,88.00
2022-10-16T19:18:54.859Z,88.20
2022-10-16T19:21:23.956Z,88.30
2022-10-16T19:23:55.066Z,88.40
2022-10-16T19:26:21.877Z,88.50
2022-10-16T19:28:53.509Z,88.70
2022-10-16T19:31:24.052Z,88.70
2022-10-16T19:33:56.274Z,88.80
2022-10-16T19:36:25.415Z,88.90
2022-10-16T19:39:04.169Z,88.80
2022-10-16T19:41:31.261Z,88.80
2022-10-16T19:44:02.072Z,88.70
2022-10-16T19:46:28.221Z,88.90
2022-10-16T19:48:55.924Z,89.20
2022-10-16T19:51:23.590Z,89.40
2022-10-16T19:53:55.643Z,89.60
2022-10-16T19:56:23.788Z,89.70
2022-10-16T19:58:51.683Z,90.00
2022-10-16T20:01:19.669Z,89.90
2022-10-16T20:03:47.294Z,90.00
2022-10-16T20:06:14.630Z,90.40
2022-10-16T20:08:42.335Z,90.60
2022-10-16T20:11:13.779Z,90.80
2022-10-16T20:13:41.634Z,90.90
2022-10-16T20:16:12.347Z,90.90
2022-10-16T20:18:40.174Z,90.70
2022-10-16T20:21:14.420Z,91.00
2022-10-16T20:23:41.440Z,91.30
2022-10-16T20:26:10.943Z,91.40
2022-10-16T20:28:39.570Z,91.50
2022-10-16T20:31:08.208Z,91.70
2022-10-16T20:33:34.415Z,91.80
2022-10-16T20:36:00.628Z,91.90
2022-10-16T20:38:27.345Z,92.00
2022-10-16T20:40:53.413Z,92.10
2022-10-16T20:43:20.986Z,92.20
2022-10-16T20:45:47.151Z,92.40
2022-10-16T20:48:17.943Z,92.40
2022-10-16T20:50:44.013Z,92.50
2022-10-16T20:53:10.049Z,92.50
2022-10-16T20:55:37.296Z,92.60
2022-10-16T20:58:04.991Z,92.70
2022-10-16T21:00:31.178Z,92.80
2022-10-16T21:02:57.311Z,92.90
2022-10-16T21:05:23.883Z,92.90
2022-10-16T21:07:50.304Z,92.90
2022-10-16T21:10:16.456Z,92.90
2022-10-16T21:12:42.497Z,93.00
2022-10-16T21:15:14.926Z,93.10
2022-10-16T21:17:41.727Z,93.10
2022-10-16T21:20:08.373Z,93.10
2022-10-16T21:22:35.389Z,93.10
2022-10-16T21:25:01.948Z,93.00
2022-10-16T21:27:29.093Z,93.00
2022-10-16T21:29:56.748Z,93.10
2022-10-16T21:32:23.036Z,93.10
2022-10-16T21:34:49.045Z,93.20
2022-10-16T21:37:15.076Z,93.30
2022-10-16T21:39:41.305Z,93.30
2022-10-16T21:42:07.521Z,93.30
2022-10-16T21:44:33.823Z,93.40
2022-10-16T21:47:00.352Z,93.50
2022-10-16T21:49:26.526Z,93.60
2022-10-16T21:51:52.845Z,93.60
2022-10-16T21:54:21.768Z,93.60
2022-10-16T21:56:48.226Z,93.70
2022-10-16T21:59:15.042Z,93.80
2022-10-16T22:01:42.694Z,93.80
2022-10-16T22:04:11.073Z,93.80
2022-10-16T22:06:37.991Z,93.80
2022-10-16T22:09:04.228Z,93.80
2022-10-16T22:11:36.173Z,94.00
2022-10-16T22:14:10.446Z,94.10
2022-10-16T22:16:37.256Z,94.10
2022-10-16T22:19:07.675Z,94.10
2022-10-16T22:21:38.352Z,94.10
2022-10-16T22:24:05.781Z,94.20
2022-10-16T22:26:32.569Z,94.20
2022-10-16T22:28:58.912Z,94.30
2022-10-16T22:31:25.032Z,94.60
2022-10-16T22:33:59.325Z,94.30
2022-10-16T22:36:26.776Z,94.30
2022-10-16T22:38:52.931Z,94.30
2022-10-16T22:41:19.882Z,94.30
2022-10-16T22:43:47.733Z,94.30
2022-10-16T22:46:18.567Z,94.30
2022-10-16T22:48:44.731Z,94.40
2022-10-16T22:51:16.515Z,94.40
2022-10-16T22:53:44.174Z,94.40
2022-10-16T22:56:10.596Z,94.40
2022-10-16T22:58:37.385Z,94.40
2022-10-16T23:01:12.380Z,94.40
2022-10-16T23:03:38.666Z,94.40
2022-10-16T23:06:05.096Z,94.40
2022-10-16T23:08:31.185Z,94.40
2022-10-16T23:11:00.227Z,94.30
2022-10-16T23:13:26.664Z,94.40
2022-10-16T23:15:52.785Z,94.40
2022-10-16T23:18:18.878Z,94.40
2022-10-16T23:20:44.900Z,94.50
2022-10-16T23:23:10.917Z,94.50
2022-10-16T23:25:43.699Z,94.50
2022-10-16T23:28:10.760Z,94.50
2022-10-16T23:30:38.879Z,94.60
2022-10-16T23:33:06.175Z,94.60
2022-10-16T23:35:32.550Z,94.60
2022-10-16T23:37:58.583Z,94.70
2022-10-16T23:40:24.617Z,94.80
2022-10-16T23:42:50.912Z,94.90
2022-10-16T23:45:16.985Z,95.10
2022-10-16T23:47:43.024Z,95.20
2022-10-16T23:50:09.613Z,95.20
2022-10-16T23:52:35.718Z,95.30
2022-10-16T23:55:01.819Z,95.40
2022-10-16T23:57:28.180Z,95.50
2022-10-16T23:59:57.606Z,95.60
